Terminal Aerodrome Forecast
Issued by NWS Raleigh/Durham, NC

Home | Current Version | Previous Version | Text Only | Print | Product List | Glossary On
Versions: 1 2 3 4 5 6 7 8 9 10 11 12 13 14 15 16 17 18 19 20 21 22 23 24 25 26 27 28
000
FTUS42 KRAH 310527
TAFFAY
TAF
KFAY 310527Z 3106/0106 VRB04KT P6SM OVC100
     FM310900 05002KT 6SM -RA BR BKN025
      TEMPO 3109/3112 2SM RA OVC010
     FM311200 06003KT 2SM -RA BR OVC007
     FM311800 11007KT P6SM OVC050
      TEMPO 3118/3121 5SM SHRA OVC035=

USA.gov is the U.S. government's official web portal to all federal, state and local government web resources and services.